createdAt,value
2019-05-20T00:00:18.276Z,13.79
2019-05-20T00:02:46.945Z,13.44
2019-05-20T00:05:15.707Z,13.53
2019-05-20T00:07:44.408Z,13.44
2019-05-20T00:10:13.706Z,13.43
2019-05-20T00:12:42.415Z,13.49
2019-05-20T00:15:11.311Z,13.40
2019-05-20T00:17:40.153Z,13.51
2019-05-20T00:20:09.267Z,13.53
2019-05-20T00:22:38.045Z,13.39
2019-05-20T00:25:07.948Z,13.40
2019-05-20T00:27:36.686Z,13.34
2019-05-20T00:30:07.958Z,13.47
2019-05-20T00:32:41.069Z,13.49
2019-05-20T00:35:07.756Z,13.32
2019-05-20T00:37:36.566Z,13.36
2019-05-20T00:40:07.820Z,13.25
2019-05-20T00:42:36.621Z,13.12
2019-05-20T00:45:05.911Z,13.09
2019-05-20T00:47:34.721Z,13.29
2019-05-20T00:50:03.661Z,13.23
2019-05-20T00:52:32.401Z,13.13
2019-05-20T00:55:01.082Z,13.17
2019-05-20T00:57:29.811Z,13.21
2019-05-20T00:59:58.595Z,13.12
2019-05-20T01:02:27.260Z,13.11
2019-05-20T01:04:57.447Z,13.07
2019-05-20T01:07:26.196Z,13.14
2019-05-20T01:09:54.939Z,13.15
2019-05-20T01:12:23.717Z,13.18
2019-05-20T01:14:52.479Z,13.14
2019-05-20T01:17:21.157Z,12.92
2019-05-20T01:19:49.964Z,13.10
2019-05-20T01:22:18.661Z,13.10
2019-05-20T01:24:47.414Z,13.00
2019-05-20T01:27:16.242Z,12.96
2019-05-20T01:29:44.993Z,12.90
2019-05-20T01:32:13.910Z,12.93
2019-05-20T01:34:42.694Z,12.99
2019-05-20T01:37:11.451Z,12.87
2019-05-20T01:39:40.169Z,12.81
2019-05-20T01:42:08.880Z,12.95
2019-05-20T01:44:38.990Z,13.03
2019-05-20T01:47:07.651Z,13.10
2019-05-20T01:49:36.535Z,13.08
2019-05-20T01:52:05.947Z,13.04
2019-05-20T01:54:34.625Z,13.08
2019-05-20T01:57:03.351Z,13.10
2019-05-20T01:59:32.032Z,13.14
2019-05-20T02:02:00.704Z,12.95
2019-05-20T02:04:29.422Z,12.92
2019-05-20T02:06:58.104Z,12.80
2019-05-20T02:09:26.840Z,12.83
2019-05-20T02:11:55.706Z,12.93
2019-05-20T02:14:26.016Z,12.99
2019-05-20T02:16:54.754Z,12.89
2019-05-20T02:19:23.462Z,12.72
2019-05-20T02:21:52.161Z,12.71
2019-05-20T02:24:20.902Z,12.81
2019-05-20T02:26:49.730Z,12.89
2019-05-20T02:29:18.468Z,12.87
2019-05-20T02:31:47.217Z,12.87
2019-05-20T02:34:15.938Z,12.84
2019-05-20T02:36:44.597Z,12.83
2019-05-20T02:39:13.284Z,12.74
2019-05-20T02:41:42.069Z,12.80
2019-05-20T02:44:10.855Z,12.87
2019-05-20T02:46:39.568Z,13.01
2019-05-20T02:49:08.285Z,13.00
2019-05-20T02:51:37.040Z,12.98
2019-05-20T02:54:05.766Z,12.98
2019-05-20T02:56:34.469Z,12.90
2019-05-20T02:59:03.253Z,12.83
2019-05-20T03:01:32.006Z,12.80
2019-05-20T03:04:11.793Z,12.88
2019-05-20T03:06:31.122Z,12.69
2019-05-20T03:08:59.807Z,12.86
2019-05-20T03:11:28.516Z,12.95
2019-05-20T03:13:57.213Z,12.87
2019-05-20T03:16:25.930Z,12.79
2019-05-20T03:18:54.615Z,12.70
2019-05-20T03:21:23.348Z,12.61
2019-05-20T03:23:52.020Z,12.64
2019-05-20T03:26:20.805Z,12.53
2019-05-20T03:28:50.989Z,12.42
2019-05-20T03:31:19.766Z,12.55
2019-05-20T03:33:48.464Z,12.54
2019-05-20T03:36:17.421Z,12.54
2019-05-20T03:38:46.119Z,12.55
2019-05-20T03:41:14.792Z,12.66
2019-05-20T03:43:45.555Z,12.79
2019-05-20T03:46:15.792Z,12.78
2019-05-20T03:48:44.466Z,12.61
2019-05-20T03:51:13.196Z,12.50
2019-05-20T03:53:41.955Z,12.50
2019-05-20T03:56:10.699Z,12.44
2019-05-20T03:58:39.416Z,12.43
2019-05-20T04:01:08.147Z,12.52
2019-05-20T04:03:36.920Z,12.49
2019-05-20T04:06:05.706Z,12.59
2019-05-20T04:08:34.413Z,12.67
2019-05-20T04:11:03.087Z,12.64
2019-05-20T04:13:34.692Z,12.67
2019-05-20T04:16:02.338Z,12.70
2019-05-20T04:18:31.087Z,12.69
2019-05-20T04:20:59.766Z,12.79
2019-05-20T04:23:28.488Z,12.74
2019-05-20T04:25:57.170Z,12.73
2019-05-20T04:28:25.873Z,12.64
2019-05-20T04:30:54.546Z,12.54
2019-05-20T04:33:24.689Z,12.63
2019-05-20T04:35:53.450Z,12.78
2019-05-20T04:38:22.247Z,12.91
2019-05-20T04:40:50.892Z,12.82
2019-05-20T04:43:19.619Z,12.83
2019-05-20T04:45:48.283Z,13.05
2019-05-20T04:48:17.003Z,13.09
2019-05-20T04:50:45.806Z,13.12
2019-05-20T04:53:15.562Z,13.16
2019-05-20T04:55:44.238Z,13.20
2019-05-20T04:58:12.973Z,13.21
2019-05-20T05:00:53.400Z,13.44
2019-05-20T05:03:22.650Z,13.33
2019-05-20T05:05:51.857Z,13.34
2019-05-20T05:08:21.546Z,13.38
2019-05-20T05:10:50.692Z,13.32
2019-05-20T05:13:19.844Z,13.03
2019-05-20T05:15:48.615Z,13.11
2019-05-20T05:18:17.462Z,13.22
2019-05-20T05:20:46.227Z,13.18
2019-05-20T05:23:15.016Z,13.27
2019-05-20T05:25:43.713Z,13.31
2019-05-20T05:28:13.932Z,13.32
2019-05-20T05:30:43.711Z,13.18
2019-05-20T05:33:12.489Z,13.26
2019-05-20T05:35:52.927Z,13.27
2019-05-20T05:38:11.642Z,13.16
2019-05-20T05:40:40.454Z,13.21
2019-05-20T05:43:09.207Z,13.31
2019-05-20T05:45:37.916Z,13.41
2019-05-20T05:48:06.600Z,13.41
2019-05-20T05:50:35.324Z,13.25
2019-05-20T05:53:05.401Z,13.28
2019-05-20T05:55:34.193Z,13.24
2019-05-20T05:58:02.924Z,13.39
2019-05-20T06:00:32.074Z,13.31
2019-05-20T06:03:00.861Z,13.31
2019-05-20T06:05:31.754Z,13.34
2019-05-20T06:07:59.929Z,13.44
2019-05-20T06:10:28.671Z,13.50
2019-05-20T06:12:58.006Z,13.59
2019-05-20T06:15:26.744Z,13.63
2019-05-20T06:17:55.539Z,13.68
2019-05-20T06:20:24.404Z,13.83
2019-05-20T06:22:53.174Z,13.95
2019-05-20T06:25:22.236Z,13.88
2019-05-20T06:27:53.358Z,13.82
2019-05-20T06:30:24.944Z,13.81
2019-05-20T06:32:53.630Z,13.64
2019-05-20T06:51:18.890Z,14.34
2019-05-20T06:54:04.520Z,14.57
2019-05-20T07:16:07.432Z,15.09
2019-05-20T07:34:30.658Z,15.60
2019-05-20T07:37:03.811Z,15.80
2019-05-20T07:39:29.860Z,15.78
2019-05-20T07:41:58.554Z,16.01
2019-05-20T07:44:27.311Z,15.58
2019-05-20T07:46:56.211Z,15.16
2019-05-20T07:49:25.148Z,15.32
2019-05-20T07:51:54.112Z,15.65
2019-05-20T07:54:24.005Z,15.78
2019-05-20T07:56:55.080Z,15.90
2019-05-20T07:59:25.795Z,16.23
2019-05-20T08:01:54.487Z,16.23
2019-05-20T08:04:23.602Z,16.27
2019-05-20T08:06:52.508Z,16.27
2019-05-20T08:09:21.162Z,16.41
2019-05-20T08:11:49.894Z,16.52
2019-05-20T08:14:19.094Z,16.59
2019-05-20T08:16:47.876Z,16.59
2019-05-20T08:19:16.559Z,16.81
2019-05-20T08:21:46.777Z,16.52
2019-05-20T08:24:15.479Z,16.98
2019-05-20T08:26:44.281Z,16.78
2019-05-20T08:29:13.055Z,16.74
2019-05-20T08:31:41.721Z,16.71
2019-05-20T08:34:10.454Z,16.54
2019-05-20T08:36:39.150Z,16.31
2019-05-20T08:39:08.719Z,16.91
2019-05-20T08:41:37.829Z,17.30
2019-05-20T08:44:06.599Z,17.60
2019-05-20T08:46:35.337Z,17.64
2019-05-20T08:49:04.067Z,17.63
2019-05-20T08:51:34.239Z,17.89
2019-05-20T08:54:03.177Z,18.07
2019-05-20T08:56:31.950Z,18.14
2019-05-20T08:59:00.656Z,18.38
2019-05-20T09:01:29.319Z,18.34
2019-05-20T09:03:58.120Z,17.91
2019-05-20T09:06:26.902Z,17.97
2019-05-20T09:08:56.137Z,18.33
2019-05-20T09:11:24.868Z,17.91
2019-05-20T09:13:53.589Z,17.69
2019-05-20T09:16:22.271Z,18.29
2019-05-20T09:18:51.088Z,18.02
2019-05-20T09:21:19.796Z,18.17
2019-05-20T09:23:48.728Z,18.39
2019-05-20T09:26:18.799Z,18.42
2019-05-20T09:28:47.630Z,18.33
2019-05-20T09:31:16.643Z,18.19
2019-05-20T09:33:45.627Z,18.34
2019-05-20T09:36:14.321Z,18.59
2019-05-20T09:38:43.171Z,18.71
2019-05-20T09:41:13.523Z,18.82
2019-05-20T09:43:42.211Z,19.03
2019-05-20T09:46:10.914Z,19.03
2019-05-20T09:48:39.623Z,19.00
2019-05-20T09:51:08.371Z,19.03
2019-05-20T09:53:37.169Z,19.34
2019-05-20T09:56:05.909Z,19.71
2019-05-20T09:58:34.676Z,20.31
2019-05-20T10:01:03.444Z,21.41
2019-05-20T10:03:32.234Z,21.67
2019-05-20T10:06:00.928Z,22.08
2019-05-20T10:08:38.051Z,21.95
2019-05-20T10:11:01.186Z,22.27
2019-05-20T10:13:32.245Z,22.65
2019-05-20T10:16:00.538Z,21.96
2019-05-20T10:18:37.116Z,22.98
2019-05-20T10:20:59.806Z,23.53
2019-05-20T10:23:28.482Z,23.01
2019-05-20T10:25:58.692Z,22.87
2019-05-20T10:28:27.967Z,23.16
2019-05-20T10:30:56.711Z,21.87
2019-05-20T10:33:25.456Z,22.66
2019-05-20T10:35:54.205Z,21.64
2019-05-20T10:38:22.919Z,21.24
2019-05-20T10:40:51.699Z,21.58
2019-05-20T10:43:20.370Z,20.80
2019-05-20T10:45:49.063Z,20.73
2019-05-20T10:48:17.794Z,20.17
2019-05-20T10:50:46.556Z,20.44
2019-05-20T10:53:15.243Z,20.72
2019-05-20T10:55:45.415Z,19.53
2019-05-20T10:58:14.203Z,19.76
2019-05-20T11:01:01.189Z,19.48
2019-05-20T11:03:13.460Z,19.90
2019-05-20T11:05:42.134Z,20.02
2019-05-20T11:08:10.811Z,20.34
2019-05-20T11:10:39.583Z,20.06
2019-05-20T11:13:08.347Z,20.31
2019-05-20T11:15:37.135Z,20.89
2019-05-20T11:18:05.862Z,20.59
2019-05-20T11:20:34.631Z,20.94
2019-05-20T11:23:03.324Z,21.42
2019-05-20T11:25:32.104Z,21.53
2019-05-20T11:28:01.015Z,21.66
2019-05-20T11:30:30.066Z,21.32
2019-05-20T11:32:58.809Z,21.46
2019-05-20T11:35:27.576Z,20.87
2019-05-20T11:37:56.325Z,21.41
2019-05-20T11:40:25.098Z,21.41
2019-05-20T11:42:53.973Z,21.35
2019-05-20T11:45:22.793Z,21.47
2019-05-20T11:47:51.557Z,21.02
2019-05-20T11:50:20.438Z,21.85
2019-05-20T11:52:49.246Z,21.29
2019-05-20T11:55:18.094Z,21.82
2019-05-20T11:57:46.957Z,22.37
2019-05-20T12:00:16.193Z,22.53
2019-05-20T12:02:44.895Z,22.46
2019-05-20T12:05:14.853Z,22.16
2019-05-20T12:07:43.927Z,22.06
2019-05-20T12:10:13.191Z,22.21
2019-05-20T12:12:41.893Z,21.34
2019-05-20T12:15:11.251Z,21.53
2019-05-20T12:17:39.986Z,21.60
2019-05-20T12:20:11.836Z,21.53
2019-05-20T12:22:39.843Z,21.49
2019-05-20T12:25:09.455Z,21.52
2019-05-20T12:30:06.601Z,21.26
2019-05-20T12:32:35.286Z,21.04
2019-05-20T12:35:05.856Z,21.06
2019-05-20T12:37:34.537Z,21.63
2019-05-20T12:40:07.445Z,21.26
2019-05-20T12:42:34.205Z,21.80
2019-05-20T12:45:03.035Z,21.67
2019-05-20T12:47:31.724Z,21.24
2019-05-20T12:50:03.541Z,21.10
2019-05-20T12:52:32.206Z,21.59
2019-05-20T12:55:07.951Z,22.43
2019-05-20T12:57:31.509Z,22.49
2019-05-20T13:00:00.224Z,23.01
2019-05-20T13:02:28.898Z,23.04
2019-05-20T13:05:00.641Z,22.57
2019-05-20T13:07:29.376Z,22.80
2019-05-20T13:10:02.560Z,22.94
2019-05-20T13:12:28.669Z,23.10
2019-05-20T13:14:57.455Z,22.13
2019-05-20T13:17:26.325Z,22.61
2019-05-20T13:19:55.124Z,23.08
2019-05-20T13:22:23.823Z,23.58
2019-05-20T13:24:52.605Z,23.38
2019-05-20T13:27:21.382Z,23.93
2019-05-20T13:29:50.123Z,23.55
2019-05-20T13:32:18.912Z,23.49
2019-05-20T13:34:47.683Z,23.78
2019-05-20T13:37:16.460Z,23.46
2019-05-20T13:39:45.206Z,23.10
2019-05-20T13:42:13.980Z,22.63
2019-05-20T13:44:43.018Z,23.02
2019-05-20T13:47:11.803Z,23.26
2019-05-20T13:49:40.542Z,23.85
2019-05-20T13:52:09.327Z,24.01
2019-05-20T13:54:37.994Z,23.74
2019-05-20T13:57:06.805Z,23.60
2019-05-20T13:59:35.523Z,22.49
2019-05-20T14:02:09.290Z,21.90
2019-05-20T14:04:39.538Z,22.15
2019-05-20T14:07:08.275Z,21.84
2019-05-20T14:09:37.028Z,21.98
2019-05-20T14:12:05.740Z,22.28
2019-05-20T14:14:34.397Z,22.85
2019-05-20T14:17:03.280Z,23.60
2019-05-20T14:19:31.954Z,23.13
2019-05-20T14:22:00.726Z,23.49
2019-05-20T14:24:29.487Z,23.44
2019-05-20T14:26:58.264Z,23.78
2019-05-20T14:29:27.001Z,24.25
2019-05-20T14:31:55.775Z,24.70
2019-05-20T14:34:24.516Z,25.01
2019-05-20T14:36:53.312Z,24.66
2019-05-20T14:39:22.065Z,23.94
2019-05-20T14:41:50.789Z,24.02
2019-05-20T14:44:19.529Z,23.71
2019-05-20T14:46:48.304Z,23.78
2019-05-20T14:49:17.141Z,23.67
2019-05-20T14:51:45.923Z,23.37
2019-05-20T14:54:14.696Z,23.18
2019-05-20T14:56:43.453Z,23.05
2019-05-20T14:59:12.187Z,22.98
2019-05-20T15:01:40.960Z,22.82
2019-05-20T15:04:11.091Z,22.69
2019-05-20T15:06:39.799Z,22.56
2019-05-20T15:09:08.541Z,22.29
2019-05-20T15:11:38.719Z,22.16
2019-05-20T15:14:07.700Z,22.27
2019-05-20T15:16:36.428Z,22.23
2019-05-20T15:19:05.225Z,22.23
2019-05-20T15:21:33.988Z,22.12
2019-05-20T15:24:02.755Z,22.20
2019-05-20T15:26:31.570Z,21.92
2019-05-20T15:29:00.325Z,21.81
2019-05-20T15:31:28.985Z,21.74
2019-05-20T15:33:57.750Z,21.91
2019-05-20T15:36:26.415Z,21.78
2019-05-20T15:38:55.283Z,21.68
2019-05-20T15:41:25.407Z,21.63
2019-05-20T15:43:54.079Z,21.58
2019-05-20T15:46:22.883Z,21.63
2019-05-20T15:48:51.587Z,21.60
2019-05-20T15:51:20.274Z,21.63
2019-05-20T15:53:48.954Z,21.64
2019-05-20T15:56:17.725Z,21.70
2019-05-20T15:58:46.431Z,21.69
2019-05-20T16:01:16.650Z,21.67
2019-05-20T16:03:45.428Z,21.67
2019-05-20T16:06:14.174Z,21.71
2019-05-20T16:08:42.933Z,21.64
2019-05-20T16:11:11.708Z,21.62
2019-05-20T16:13:40.432Z,21.54
2019-05-20T16:16:12.807Z,21.62
2019-05-20T16:18:39.595Z,21.88
2019-05-20T16:21:11.609Z,21.85
2019-05-20T16:23:40.385Z,21.73
2019-05-20T16:26:09.066Z,21.72
2019-05-20T16:28:37.863Z,21.63
2019-05-20T16:31:06.553Z,21.38
2019-05-20T16:33:36.788Z,21.53
2019-05-20T16:36:05.557Z,21.24
2019-05-20T16:38:34.351Z,21.42
2019-05-20T16:41:03.085Z,21.21
2019-05-20T16:43:31.791Z,21.23
2019-05-20T16:46:00.560Z,21.28
2019-05-20T16:48:29.373Z,21.33
2019-05-20T16:50:58.059Z,21.42
2019-05-20T16:53:26.783Z,21.28
2019-05-20T16:55:55.533Z,21.12
2019-05-20T16:58:24.248Z,21.21
2019-05-20T17:00:52.936Z,21.25
2019-05-20T17:03:21.703Z,21.08
2019-05-20T17:05:50.397Z,20.84
2019-05-20T17:08:19.104Z,20.75
2019-05-20T17:10:52.955Z,20.61
2019-05-20T17:13:21.656Z,20.75
2019-05-20T17:15:50.339Z,20.68
2019-05-20T17:18:23.663Z,20.75
2019-05-20T17:20:52.323Z,20.66
2019-05-20T17:23:21.023Z,20.70
2019-05-20T17:25:50.812Z,20.63
2019-05-20T17:28:19.777Z,20.79
2019-05-20T17:30:48.585Z,20.63
2019-05-20T17:33:17.294Z,20.63
2019-05-20T17:35:46.168Z,20.71
2019-05-20T17:38:15.873Z,20.68
2019-05-20T17:40:46.183Z,20.55
2019-05-20T17:43:14.989Z,20.73
2019-05-20T17:45:43.697Z,20.71
2019-05-20T17:48:12.420Z,20.58
2019-05-20T17:50:41.111Z,20.44
2019-05-20T17:53:09.846Z,20.46
2019-05-20T17:55:38.590Z,20.49
2019-05-20T17:58:07.305Z,20.50
2019-05-20T18:00:36.065Z,20.36
2019-05-20T18:03:04.755Z,20.23
2019-05-20T18:05:33.638Z,20.33
2019-05-20T18:08:02.398Z,20.17
2019-05-20T18:10:33.024Z,20.05
2019-05-20T18:13:01.708Z,20.07
2019-05-20T18:15:32.889Z,20.02
2019-05-20T18:18:03.699Z,20.06
2019-05-20T18:20:32.885Z,19.88
2019-05-20T18:23:04.546Z,19.89
2019-05-20T18:25:33.385Z,19.93
2019-05-20T18:28:05.270Z,19.84
2019-05-20T18:30:34.315Z,19.78
2019-05-20T18:33:03.118Z,19.62
2019-05-20T18:35:31.895Z,19.68
2019-05-20T18:38:01.053Z,19.50
2019-05-20T18:40:31.266Z,19.48
2019-05-20T18:43:00.475Z,19.41
2019-05-20T18:45:29.233Z,19.40
2019-05-20T18:47:58.261Z,19.26
2019-05-20T18:50:27.460Z,19.14
2019-05-20T18:52:56.249Z,19.22
2019-05-20T18:55:25.463Z,19.18
2019-05-20T18:57:54.453Z,19.18
2019-05-20T19:00:23.699Z,19.10
2019-05-20T19:02:52.943Z,19.08
2019-05-20T19:05:22.056Z,19.05
2019-05-20T19:07:51.105Z,18.94
2019-05-20T19:10:20.089Z,18.94
2019-05-20T19:12:48.869Z,18.69
2019-05-20T19:15:18.180Z,18.61
2019-05-20T19:17:47.124Z,18.50
2019-05-20T19:20:18.991Z,18.44
2019-05-20T19:22:48.204Z,18.37
2019-05-20T19:25:18.627Z,18.46
2019-05-20T19:27:47.569Z,18.21
2019-05-20T19:30:17.644Z,18.09
2019-05-20T19:32:46.356Z,18.15
2019-05-20T19:35:15.685Z,18.12
2019-05-20T19:37:44.410Z,18.10
2019-05-20T19:40:13.830Z,18.20
2019-05-20T19:42:42.622Z,18.19
2019-05-20T19:45:12.225Z,18.05
2019-05-20T19:47:41.123Z,18.01
2019-05-20T19:50:12.067Z,17.91
2019-05-20T19:52:41.055Z,17.90
2019-05-20T19:55:09.909Z,17.97
2019-05-20T19:57:38.597Z,17.85
2019-05-20T20:00:10.294Z,17.84
2019-05-20T20:02:40.712Z,17.69
2019-05-20T20:05:10.931Z,17.57
2019-05-20T20:07:40.216Z,17.58
2019-05-20T20:10:09.549Z,17.59
2019-05-20T20:12:38.497Z,17.68
2019-05-20T20:15:07.712Z,17.75
2019-05-20T20:17:36.848Z,17.75
2019-05-20T20:20:10.863Z,17.76
2019-05-20T20:22:39.566Z,17.73
2019-05-20T20:25:08.542Z,17.74
2019-05-20T20:27:37.376Z,17.77
2019-05-20T20:30:07.366Z,17.75
2019-05-20T20:32:38.428Z,17.73
2019-05-20T20:35:08.788Z,17.74
2019-05-20T20:37:40.468Z,17.67
2019-05-20T20:40:09.359Z,17.63
2019-05-20T20:42:38.143Z,17.62
2019-05-20T20:45:07.061Z,17.59
2019-05-20T20:47:41.874Z,17.52
2019-05-20T20:50:07.913Z,17.55
2019-05-20T20:52:36.778Z,17.47
2019-05-20T20:55:07.161Z,17.54
2019-05-20T20:57:36.123Z,17.48
2019-05-20T21:00:07.893Z,17.42
2019-05-20T21:02:36.643Z,17.18
2019-05-20T21:05:06.103Z,17.13
2019-05-20T21:07:34.878Z,17.02
2019-05-20T21:10:04.523Z,17.08
2019-05-20T21:12:33.281Z,16.99
2019-05-20T21:15:02.318Z,16.91
2019-05-20T21:17:31.133Z,16.92
2019-05-20T21:19:59.879Z,16.96
2019-05-20T21:22:28.596Z,17.04
2019-05-20T21:24:57.282Z,17.12
2019-05-20T21:27:25.995Z,17.17
2019-05-20T21:29:54.669Z,17.22
2019-05-20T21:32:23.419Z,17.17
2019-05-20T21:34:52.134Z,17.09
2019-05-20T21:37:20.841Z,17.11
2019-05-20T21:39:49.529Z,17.08
2019-05-20T21:42:18.240Z,17.01
2019-05-20T21:44:46.977Z,16.99
2019-05-20T21:47:15.681Z,16.97
2019-05-20T21:49:44.419Z,16.94
2019-05-20T21:52:13.212Z,16.90
2019-05-20T21:54:43.180Z,16.98
2019-05-20T21:57:14.233Z,16.92
2019-05-20T21:59:43.031Z,16.75
2019-05-20T22:02:11.919Z,16.74
2019-05-20T22:04:40.653Z,16.75
2019-05-20T22:07:09.420Z,16.72
2019-05-20T22:09:38.173Z,16.65
2019-05-20T22:12:06.987Z,16.62
2019-05-20T22:14:35.690Z,16.58
2019-05-20T22:17:04.490Z,16.58
2019-05-20T22:19:33.186Z,16.63
2019-05-20T22:22:12.553Z,16.58
2019-05-20T22:24:41.311Z,16.58
2019-05-20T22:27:10.067Z,16.56
2019-05-20T22:29:38.818Z,16.58
2019-05-20T22:32:07.617Z,16.58
2019-05-20T22:34:36.284Z,16.63
2019-05-20T22:37:04.962Z,16.62
2019-05-20T22:39:33.694Z,16.65
2019-05-20T22:42:04.226Z,16.62
2019-05-20T22:44:32.991Z,16.66
2019-05-20T22:47:01.705Z,16.66
2019-05-20T22:49:30.450Z,16.53
2019-05-20T22:51:59.120Z,16.57
2019-05-20T22:54:27.879Z,16.63
2019-05-20T22:56:56.568Z,16.65
2019-05-20T22:59:25.369Z,16.56
2019-05-20T23:01:54.056Z,16.62
2019-05-20T23:04:22.743Z,16.62
2019-05-20T23:06:51.536Z,16.59
2019-05-20T23:09:20.274Z,16.61
2019-05-20T23:11:49.058Z,16.58
2019-05-20T23:14:17.828Z,16.58
2019-05-20T23:16:46.498Z,16.51
2019-05-20T23:19:15.176Z,16.53
2019-05-20T23:21:43.895Z,16.65
2019-05-20T23:24:12.584Z,16.65
2019-05-20T23:26:41.342Z,16.62
2019-05-20T23:29:10.159Z,16.62
2019-05-20T23:31:38.801Z,16.59
2019-05-20T23:34:12.932Z,16.55
2019-05-20T23:36:37.917Z,16.61
2019-05-20T23:39:07.690Z,16.53
2019-05-20T23:41:36.485Z,16.56
2019-05-20T23:44:05.252Z,16.49
2019-05-20T23:46:33.901Z,16.47
2019-05-20T23:49:02.577Z,16.60
2019-05-20T23:51:31.291Z,16.54
2019-05-20T23:54:00.030Z,16.55
2019-05-20T23:56:30.110Z,16.52
2019-05-20T23:58:58.826Z,16.53
